Time;durP1;ratioP1;P1;durP2;ratioP2;P2;SDS_P1;SDS_P2;PMS_P1;PMS_P2;Temp;Humidity;BMP_temperature;BMP_pressure;BME280_temperature;BME280_humidity;BME280_pressure;Samples;Min_cycle;Max_cycle;Signal;HPM_P1;HPM_P2
2020/12/10 00:00:12;;;;;;;32.33;15.77;;;0.90;99.90;;;;;;3579066;40;20338;-74
2020/12/10 00:02:39;;;;;;;36.45;16.48;;;0.90;99.90;;;;;;3572718;40;20257;-74
2020/12/10 00:05:07;;;;;;;31.02;15.80;;;0.80;99.90;;;;;;3571226;40;20309;-74
2020/12/10 00:07:35;;;;;;;34.47;15.80;;;0.80;99.90;;;;;;3572132;40;20261;-74
2020/12/10 00:10:01;;;;;;;32.45;16.23;;;0.70;99.90;;;;;;3575929;40;20300;-74
2020/12/10 00:12:28;;;;;;;31.83;16.75;;;0.70;99.90;;;;;;3571446;40;20249;-74
2020/12/10 00:14:55;;;;;;;30.52;16.10;;;0.70;99.90;;;;;;3572425;40;20402;-74
2020/12/10 00:17:26;;;;;;;31.45;17.55;;;0.80;99.90;;;;;;3572264;40;20293;-74
2020/12/10 00:19:52;;;;;;;34.67;16.05;;;0.80;99.90;;;;;;3574267;40;20276;-74
2020/12/10 00:22:19;;;;;;;30.48;15.98;;;0.80;99.90;;;;;;3579403;40;20370;-74
2020/12/10 00:24:47;;;;;;;28.88;15.50;;;0.90;99.90;;;;;;3576479;40;20261;-74
2020/12/10 00:27:14;;;;;;;33.53;16.50;;;0.90;99.90;;;;;;3576295;40;20266;-74
2020/12/10 00:29:40;;;;;;;29.80;15.35;;;0.90;99.90;;;;;;3575762;40;20331;-74
2020/12/10 00:32:11;;;;;;;25.35;14.65;;;1.00;99.90;;;;;;3575100;40;20370;-74
2020/12/10 00:34:37;;;;;;;33.15;16.80;;;0.90;99.90;;;;;;3576953;40;20253;-74
2020/12/10 00:37:05;;;;;;;30.75;14.57;;;0.90;99.90;;;;;;3573718;40;20276;-74
2020/12/10 00:39:32;;;;;;;31.15;17.10;;;0.90;99.90;;;;;;3580410;40;20257;-74
2020/12/10 00:41:59;;;;;;;36.90;16.58;;;0.90;99.90;;;;;;3575190;40;20241;-74
2020/12/10 00:44:25;;;;;;;30.17;15.15;;;0.90;99.90;;;;;;3580868;40;20285;-74
2020/12/10 00:46:51;;;;;;;28.95;15.32;;;0.90;99.90;;;;;;3577102;40;20271;-74
2020/12/10 00:49:20;;;;;;;32.72;15.40;;;0.90;99.90;;;;;;3574419;40;20265;-74
2020/12/10 00:51:50;;;;;;;28.55;14.75;;;0.90;99.90;;;;;;3571468;40;20304;-74
2020/12/10 00:54:16;;;;;;;27.95;14.85;;;1.00;99.90;;;;;;3574313;40;20274;-74
2020/12/10 00:56:43;;;;;;;36.30;16.15;;;1.00;99.90;;;;;;3571695;40;20277;-74
2020/12/10 00:59:10;;;;;;;28.77;15.18;;;0.90;99.90;;;;;;3575975;40;20265;-74
2020/12/10 01:01:37;;;;;;;29.20;15.55;;;0.90;99.90;;;;;;3576096;40;20416;-74
2020/12/10 01:04:03;;;;;;;28.08;15.25;;;0.90;99.90;;;;;;3576854;40;20780;-74
2020/12/10 01:06:31;;;;;;;25.92;14.02;;;0.90;99.90;;;;;;3573724;40;20734;-74
2020/12/10 01:08:57;;;;;;;30.30;15.35;;;1.00;99.90;;;;;;3575822;40;20245;-74
2020/12/10 01:11:27;;;;;;;28.77;15.23;;;1.00;99.90;;;;;;3575606;40;20398;-74
2020/12/10 01:13:53;;;;;;;26.15;14.30;;;0.90;99.90;;;;;;3575346;40;20261;-74
2020/12/10 01:16:20;;;;;;;30.83;14.07;;;0.90;99.90;;;;;;3577065;40;20285;-74
2020/12/10 01:18:46;;;;;;;29.10;13.98;;;1.00;99.90;;;;;;3573439;40;20265;-75
2020/12/10 01:21:13;;;;;;;32.65;15.25;;;1.00;99.90;;;;;;3574631;40;20354;-74
2020/12/10 01:23:40;;;;;;;36.00;15.60;;;1.00;99.90;;;;;;3574917;40;20269;-74
2020/12/10 01:26:10;;;;;;;29.30;16.20;;;1.00;99.90;;;;;;3574541;40;20342;-74
2020/12/10 01:28:36;;;;;;;28.25;13.45;;;1.00;99.90;;;;;;3574045;40;20254;-74
2020/12/10 01:31:03;;;;;;;32.08;15.05;;;1.00;99.90;;;;;;3571075;40;20305;-74
2020/12/10 01:33:31;;;;;;;27.23;14.32;;;1.00;99.90;;;;;;3579446;40;20308;-74
2020/12/10 01:35:57;;;;;;;33.28;16.52;;;1.00;99.90;;;;;;3574623;40;20285;-74
2020/12/10 01:38:24;;;;;;;29.55;13.90;;;1.00;99.90;;;;;;3590495;32;20370;-74
2020/12/10 01:40:52;;;;;;;31.90;14.68;;;1.00;99.90;;;;;;3576130;40;20301;-74
2020/12/10 01:43:18;;;;;;;24.40;14.00;;;1.00;99.90;;;;;;3579247;40;20398;-74
2020/12/10 01:45:45;;;;;;;27.58;14.40;;;1.00;99.90;;;;;;3577274;40;20297;-74
2020/12/10 01:48:11;;;;;;;29.33;14.55;;;1.10;99.90;;;;;;3577367;40;20273;-74
2020/12/10 01:50:38;;;;;;;30.08;14.82;;;1.00;99.90;;;;;;3576674;40;20763;-74
2020/12/10 01:53:04;;;;;;;33.97;15.40;;;1.10;99.90;;;;;;3570918;40;20265;-74
2020/12/10 01:55:31;;;;;;;35.45;15.10;;;1.10;99.90;;;;;;3576229;40;20296;-74
2020/12/10 01:58:00;;;;;;;27.98;14.25;;;1.10;99.90;;;;;;3579296;40;20843;-74
2020/12/10 02:00:27;;;;;;;30.75;13.70;;;1.10;99.90;;;;;;3571919;40;20303;-74
2020/12/10 02:02:57;;;;;;;33.20;15.63;;;1.10;99.90;;;;;;3574914;40;20280;-74
2020/12/10 02:05:24;;;;;;;35.95;14.23;;;1.20;99.90;;;;;;3574136;40;20281;-74
2020/12/10 02:07:50;;;;;;;28.92;14.68;;;1.10;99.90;;;;;;3578620;40;20264;-74
2020/12/10 02:10:17;;;;;;;30.05;13.73;;;1.10;99.90;;;;;;3574503;40;20380;-74
2020/12/10 02:12:43;;;;;;;29.90;14.57;;;1.20;99.90;;;;;;3573915;40;20286;-74
2020/12/10 02:15:11;;;;;;;25.45;14.10;;;1.20;99.90;;;;;;3571071;40;20416;-74
2020/12/10 02:17:37;;;;;;;29.77;14.57;;;1.20;99.90;;;;;;3577568;40;20253;-74
2020/12/10 02:20:04;;;;;;;30.13;15.75;;;1.30;99.90;;;;;;3574269;40;20747;-74
2020/12/10 02:22:31;;;;;;;33.20;14.32;;;1.30;99.90;;;;;;3577032;40;20280;-74
2020/12/10 02:24:58;;;;;;;23.50;11.73;;;1.30;99.90;;;;;;3573224;40;20252;-74
2020/12/10 02:27:25;;;;;;;23.65;12.82;;;1.20;99.90;;;;;;3575085;40;20252;-74
2020/12/10 02:29:51;;;;;;;30.38;14.45;;;1.20;99.90;;;;;;3578291;40;20370;-75
2020/12/10 02:32:18;;;;;;;28.27;15.38;;;1.20;99.90;;;;;;3575538;40;20405;-74
2020/12/10 02:34:44;;;;;;;30.33;14.93;;;1.20;99.90;;;;;;3571039;40;20354;-75
2020/12/10 02:37:11;;;;;;;28.40;14.25;;;1.10;99.90;;;;;;3577370;40;20891;-74
2020/12/10 02:39:37;;;;;;;25.73;13.80;;;1.00;99.90;;;;;;3574622;40;20269;-74
2020/12/10 02:42:05;;;;;;;27.83;12.98;;;1.00;99.90;;;;;;3574760;40;20281;-74
2020/12/10 02:44:31;;;;;;;28.98;13.73;;;1.10;99.90;;;;;;3576223;40;20342;-74
2020/12/10 02:46:57;;;;;;;28.90;14.13;;;1.10;99.90;;;;;;3571112;40;20342;-74
2020/12/10 02:49:24;;;;;;;30.48;15.35;;;1.10;99.90;;;;;;3574063;40;20277;-74
2020/12/10 02:51:50;;;;;;;31.73;13.40;;;1.10;99.90;;;;;;3572899;40;20262;-74
2020/12/10 02:54:17;;;;;;;36.47;15.65;;;1.10;99.90;;;;;;3578247;40;20334;-75
2020/12/10 02:56:43;;;;;;;26.77;13.75;;;1.10;99.90;;;;;;3572758;40;20869;-74
2020/12/10 02:59:11;;;;;;;31.08;14.88;;;1.10;99.90;;;;;;3571234;40;20285;-74
2020/12/10 03:01:37;;;;;;;26.33;14.18;;;1.10;99.90;;;;;;3574280;40;20347;-74
2020/12/10 03:04:04;;;;;;;34.75;16.50;;;1.10;99.90;;;;;;3570652;40;20281;-74
2020/12/10 03:06:30;;;;;;;29.52;14.35;;;1.10;99.90;;;;;;3576955;40;20339;-75
2020/12/10 03:08:57;;;;;;;30.50;13.70;;;1.00;99.90;;;;;;3574353;40;20250;-75
2020/12/10 03:11:24;;;;;;;27.08;13.60;;;1.00;99.90;;;;;;3574990;40;20311;-75
2020/12/10 03:13:50;;;;;;;35.97;14.95;;;0.90;99.90;;;;;;3576647;40;20261;-74
2020/12/10 03:16:18;;;;;;;35.28;15.45;;;0.90;99.90;;;;;;3577719;40;20273;-74
2020/12/10 03:18:44;;;;;;;29.50;15.48;;;0.90;99.90;;;;;;3577089;40;20261;-74
2020/12/10 03:21:11;;;;;;;31.02;15.25;;;1.00;99.90;;;;;;3572204;40;20269;-74
2020/12/10 03:23:37;;;;;;;36.03;16.27;;;1.00;99.90;;;;;;3574942;40;20261;-74
2020/12/10 03:26:03;;;;;;;31.70;15.48;;;1.00;99.90;;;;;;3575486;40;20374;-75
2020/12/10 03:28:30;;;;;;;32.22;13.50;;;1.00;99.90;;;;;;3574223;40;20601;-74
2020/12/10 03:30:56;;;;;;;36.03;14.98;;;1.00;99.90;;;;;;3570605;40;20453;-74
2020/12/10 03:33:24;;;;;;;36.38;16.20;;;1.00;99.90;;;;;;3574614;40;20279;-74
2020/12/10 03:35:50;;;;;;;29.20;14.13;;;1.00;99.90;;;;;;3572989;40;20249;-74
2020/12/10 03:38:17;;;;;;;31.98;15.00;;;1.00;99.90;;;;;;3573841;40;20411;-74
2020/12/10 03:40:43;;;;;;;33.80;15.55;;;1.00;99.90;;;;;;3573257;40;20362;-74
2020/12/10 03:43:09;;;;;;;34.30;16.20;;;0.90;99.90;;;;;;3575192;40;20301;-75
2020/12/10 03:45:36;;;;;;;33.55;15.13;;;0.90;99.90;;;;;;3576397;40;20886;-74
2020/12/10 03:48:03;;;;;;;30.02;14.50;;;0.90;99.90;;;;;;3577660;40;20402;-74
2020/12/10 03:50:30;;;;;;;30.45;14.90;;;0.90;99.90;;;;;;3580893;40;20269;-74
2020/12/10 03:52:56;;;;;;;29.50;14.55;;;0.90;99.90;;;;;;3580899;40;20257;-75
2020/12/10 03:55:23;;;;;;;30.23;14.00;;;0.90;99.90;;;;;;3575623;40;20358;-74
2020/12/10 03:57:49;;;;;;;28.17;14.00;;;0.90;99.90;;;;;;3579902;40;20273;-75
2020/12/10 04:00:16;;;;;;;30.17;13.60;;;0.90;99.90;;;;;;3579090;40;20289;-74
2020/12/10 04:02:42;;;;;;;29.58;14.88;;;0.80;99.90;;;;;;3577673;40;20261;-75
2020/12/10 04:05:09;;;;;;;30.65;14.13;;;0.80;99.90;;;;;;3578648;40;20261;-74
2020/12/10 04:07:36;;;;;;;25.77;13.32;;;0.80;99.90;;;;;;3577840;40;20249;-74
2020/12/10 04:10:04;;;;;;;33.25;16.80;;;0.80;99.90;;;;;;3577798;40;20913;-74
2020/12/10 04:12:30;;;;;;;35.22;15.57;;;0.80;99.90;;;;;;3575990;40;20263;-74
2020/12/10 04:14:57;;;;;;;30.60;14.57;;;0.70;99.90;;;;;;3577636;40;20246;-74
2020/12/10 04:17:23;;;;;;;32.50;14.02;;;0.80;99.90;;;;;;3577439;40;20382;-74
2020/12/10 04:19:50;;;;;;;32.35;13.38;;;0.70;99.90;;;;;;3580757;40;20265;-74
2020/12/10 04:22:16;;;;;;;25.05;12.50;;;0.70;99.90;;;;;;3577393;40;20354;-74
2020/12/10 04:24:43;;;;;;;31.17;14.15;;;0.70;99.90;;;;;;3574112;40;20269;-73
2020/12/10 04:27:10;;;;;;;32.85;14.10;;;0.60;99.90;;;;;;3572635;40;20366;-74
2020/12/10 04:29:36;;;;;;;29.70;14.48;;;0.60;99.90;;;;;;3580504;40;20310;-73
2020/12/10 04:32:03;;;;;;;27.92;14.55;;;0.60;99.90;;;;;;3577538;40;20340;-73
2020/12/10 04:34:29;;;;;;;30.40;16.08;;;0.60;99.90;;;;;;3575436;40;20389;-73
2020/12/10 04:36:56;;;;;;;33.63;16.27;;;0.50;99.90;;;;;;3574744;40;20260;-74
2020/12/10 04:39:22;;;;;;;29.60;14.38;;;0.50;99.90;;;;;;3577677;40;20398;-74
2020/12/10 04:41:50;;;;;;;29.60;15.45;;;0.50;99.90;;;;;;3577203;40;20253;-74
2020/12/10 04:44:16;;;;;;;35.80;15.40;;;0.50;99.90;;;;;;3571853;40;20289;-75
2020/12/10 04:46:45;;;;;;;34.25;16.08;;;0.50;99.90;;;;;;3574346;40;20335;-74
2020/12/10 04:49:12;;;;;;;33.72;15.10;;;0.50;99.90;;;;;;3578029;40;20265;-74
2020/12/10 04:51:41;;;;;;;30.17;13.13;;;0.50;99.90;;;;;;3581065;40;20397;-74
2020/12/10 04:54:09;;;;;;;29.48;13.60;;;0.50;99.90;;;;;;3578916;40;20346;-74
2020/12/10 04:56:35;;;;;;;32.42;14.68;;;0.50;99.90;;;;;;3576729;40;20342;-74
2020/12/10 04:59:04;;;;;;;33.38;15.23;;;0.40;99.90;;;;;;3572463;40;20367;-74
2020/12/10 05:01:30;;;;;;;34.05;14.10;;;0.50;99.90;;;;;;3573238;40;20261;-73
2020/12/10 05:03:58;;;;;;;26.48;13.77;;;0.50;99.90;;;;;;3579341;40;20382;-74
2020/12/10 05:06:26;;;;;;;38.15;13.38;;;0.40;99.90;;;;;;3575409;40;20254;-74
2020/12/10 05:09:06;;;;;;;31.83;14.30;;;0.40;99.90;;;;;;3575154;40;20265;-74
2020/12/10 05:11:34;;;;;;;30.45;15.35;;;0.30;99.90;;;;;;3578216;40;20261;-74
2020/12/10 05:14:00;;;;;;;37.33;15.30;;;0.30;99.90;;;;;;3578416;40;20257;-74
2020/12/10 05:16:28;;;;;;;34.28;15.82;;;0.30;99.90;;;;;;3578006;40;20253;-74
2020/12/10 05:18:54;;;;;;;35.17;15.10;;;0.30;99.90;;;;;;3607301;32;20305;-74
2020/12/10 05:21:23;;;;;;;32.65;14.13;;;0.30;99.90;;;;;;3578006;40;20358;-74
2020/12/10 05:23:50;;;;;;;28.35;13.30;;;0.30;99.90;;;;;;3583452;32;20257;-75
2020/12/10 05:26:18;;;;;;;29.38;13.77;;;0.30;99.90;;;;;;3578025;40;20259;-74
2020/12/10 05:28:47;;;;;;;32.05;13.95;;;0.30;99.90;;;;;;3573306;40;20261;-74
2020/12/10 05:31:15;;;;;;;27.23;12.38;;;0.30;99.90;;;;;;3576446;40;20366;-74
2020/12/10 05:33:56;;;;;;;25.98;12.65;;;0.30;99.90;;;;;;3572589;40;20463;-74
2020/12/10 05:36:23;;;;;;;31.63;13.70;;;0.20;99.90;;;;;;3573360;40;20257;-74
2020/12/10 05:39:02;;;;;;;29.58;13.98;;;0.20;99.90;;;;;;3574917;40;20296;-74
2020/12/10 05:41:28;;;;;;;29.15;14.38;;;0.20;99.90;;;;;;3577162;40;20304;-73
2020/12/10 05:43:55;;;;;;;36.72;15.50;;;0.20;99.90;;;;;;3576450;40;20281;-74
2020/12/10 05:46:23;;;;;;;32.25;16.20;;;0.20;99.90;;;;;;3571071;40;20258;-74
2020/12/10 05:48:50;;;;;;;35.42;16.02;;;0.20;99.90;;;;;;3571657;40;20265;-74
2020/12/10 05:51:20;;;;;;;31.95;15.82;;;0.20;99.90;;;;;;3570904;40;20293;-74
2020/12/10 05:53:48;;;;;;;36.22;15.75;;;0.10;99.90;;;;;;3578753;40;20277;-74
2020/12/10 05:56:16;;;;;;;33.30;15.75;;;0.10;99.90;;;;;;3570892;40;20286;-74
2020/12/10 05:58:51;;;;;;;32.85;15.40;;;0.10;99.90;;;;;;3575480;40;20261;-74
2020/12/10 06:01:32;;;;;;;28.80;14.13;;;0.10;99.90;;;;;;3573230;40;20437;-74
2020/12/10 06:04:00;;;;;;;32.30;13.88;;;0.10;99.90;;;;;;3577847;40;20311;-74
2020/12/10 06:06:29;;;;;;;34.38;14.75;;;0.00;99.90;;;;;;3616567;32;20315;-74
2020/12/10 06:09:01;;;;;;;37.47;14.43;;;0.00;99.90;;;;;;3576659;40;20249;-74
2020/12/10 06:11:28;;;;;;;35.28;15.27;;;-0.10;99.90;;;;;;3609478;32;20257;-74
2020/12/10 06:14:01;;;;;;;36.92;17.15;;;-0.10;99.90;;;;;;3571758;40;20265;-74
2020/12/10 06:16:28;;;;;;;38.55;16.75;;;-0.10;99.90;;;;;;3573034;40;20253;-74
2020/12/10 06:19:01;;;;;;;34.10;16.73;;;0.00;99.90;;;;;;3577861;40;20264;-74
2020/12/10 06:21:42;;;;;;;29.48;14.52;;;0.00;99.90;;;;;;3574209;40;20253;-74
2020/12/10 06:24:36;;;;;;;29.73;14.55;;;-0.10;99.90;;;;;;3576142;32;20245;-74
2020/12/10 06:27:26;;;;;;;32.85;15.25;;;-0.10;99.90;;;;;;3576317;40;20279;-74
2020/12/10 06:30:10;;;;;;;33.97;15.05;;;-0.10;99.90;;;;;;3576287;40;20253;-74
2020/12/10 06:32:44;;;;;;;36.38;16.33;;;-0.10;99.90;;;;;;3572522;40;20254;-74
2020/12/10 06:35:32;;;;;;;33.65;16.17;;;-0.10;99.90;;;;;;3570657;40;20265;-74
2020/12/10 06:38:00;;;;;;;39.13;16.15;;;-0.10;99.90;;;;;;3574244;40;20845;-74
2020/12/10 06:40:35;;;;;;;52.85;24.85;;;-0.10;99.90;;;;;;3574962;40;20277;-74
2020/12/10 06:43:03;;;;;;;33.60;16.55;;;-0.10;99.90;;;;;;3577117;40;20265;-74
2020/12/10 06:45:36;;;;;;;31.00;14.70;;;-0.20;99.90;;;;;;3577081;40;20366;-74
2020/12/10 06:48:04;;;;;;;35.92;14.95;;;-0.20;99.90;;;;;;3572818;40;20269;-74
2020/12/10 06:50:32;;;;;;;35.67;15.30;;;-0.20;99.90;;;;;;3573270;40;20253;-74
2020/12/10 06:53:16;;;;;;;31.80;14.95;;;-0.20;99.90;;;;;;3577623;40;20354;-74
2020/12/10 06:56:03;;;;;;;32.42;15.07;;;-0.20;99.90;;;;;;3570844;40;20241;-74
2020/12/10 06:58:50;;;;;;;31.88;13.55;;;-0.20;99.90;;;;;;3574848;40;20331;-74
2020/12/10 07:01:27;;;;;;;38.15;17.73;;;-0.30;99.90;;;;;;3573919;40;20313;-74
2020/12/10 07:04:08;;;;;;;30.88;14.93;;;-0.30;99.90;;;;;;3577056;40;20921;-74
2020/12/10 07:06:35;;;;;;;34.85;16.73;;;-0.30;99.90;;;;;;3574897;40;20363;-74
2020/12/10 07:09:04;;;;;;;32.78;15.65;;;-0.30;99.90;;;;;;3576608;40;20378;-74
2020/12/10 07:11:33;;;;;;;32.15;14.82;;;-0.30;99.90;;;;;;3576473;40;20360;-74
2020/12/10 07:14:01;;;;;;;34.00;15.60;;;-0.20;99.90;;;;;;3573957;40;20257;-74
2020/12/10 07:16:31;;;;;;;35.53;17.02;;;-0.30;99.90;;;;;;3573638;40;20291;-74
2020/12/10 07:18:58;;;;;;;32.25;14.30;;;-0.20;99.90;;;;;;3576978;40;20261;-74
2020/12/10 07:21:25;;;;;;;35.70;17.40;;;-0.20;99.90;;;;;;3577661;40;20170;-74
2020/12/10 07:23:52;;;;;;;33.70;15.77;;;-0.20;99.90;;;;;;3575580;40;20272;-75
2020/12/10 07:26:19;;;;;;;34.05;16.67;;;-0.20;99.90;;;;;;3577482;40;20269;-75
2020/12/10 07:28:47;;;;;;;38.47;15.63;;;-0.20;99.90;;;;;;3581945;40;20254;-75
2020/12/10 07:31:16;;;;;;;32.60;15.50;;;-0.20;99.90;;;;;;3576375;40;20678;-76
2020/12/10 07:33:42;;;;;;;32.10;15.93;;;-0.30;99.90;;;;;;3575057;40;20268;-75
2020/12/10 07:36:10;;;;;;;34.80;14.13;;;-0.20;99.90;;;;;;3575717;40;20402;-74
2020/12/10 07:38:36;;;;;;;39.05;16.95;;;-0.20;99.90;;;;;;3574149;40;20715;-75
2020/12/10 07:41:03;;;;;;;33.50;15.93;;;-0.20;99.90;;;;;;3575784;40;20678;-75
2020/12/10 07:43:30;;;;;;;35.20;15.65;;;-0.20;99.90;;;;;;3574340;40;20269;-73
2020/12/10 07:45:57;;;;;;;35.15;16.38;;;-0.30;99.90;;;;;;3577019;40;20381;-74
2020/12/10 07:48:23;;;;;;;36.03;14.65;;;-0.30;99.90;;;;;;3610352;32;20290;-74
2020/12/10 07:50:50;;;;;;;29.60;14.55;;;-0.20;99.90;;;;;;3575850;40;20289;-74
2020/12/10 07:53:18;;;;;;;32.85;14.45;;;-0.20;99.90;;;;;;3572260;40;20250;-74
2020/12/10 07:55:53;;;;;;;35.85;16.92;;;-0.20;99.90;;;;;;3580228;40;20377;-74
2020/12/10 07:58:33;;;;;;;37.88;16.40;;;-0.20;99.90;;;;;;3573104;40;20257;-74
2020/12/10 08:01:03;;;;;;;35.95;16.15;;;-0.30;99.90;;;;;;3580310;40;20237;-74
2020/12/10 08:03:45;;;;;;;35.38;16.02;;;-0.30;99.90;;;;;;3578414;40;20284;-74
2020/12/10 08:06:13;;;;;;;34.15;16.48;;;-0.30;99.90;;;;;;3580515;40;20269;-74
2020/12/10 08:08:44;;;;;;;36.03;15.43;;;-0.30;99.90;;;;;;3609275;32;20349;-74
2020/12/10 08:11:12;;;;;;;32.80;15.50;;;-0.30;99.90;;;;;;3576813;40;20279;-74
2020/12/10 08:13:53;;;;;;;36.22;15.48;;;-0.30;99.90;;;;;;3574689;40;20277;-74
2020/12/10 08:16:21;;;;;;;36.17;14.73;;;-0.20;99.90;;;;;;3578583;40;20370;-73
2020/12/10 08:18:48;;;;;;;30.27;14.70;;;-0.20;99.90;;;;;;3571985;40;20265;-74
2020/12/10 08:21:31;;;;;;;33.58;16.63;;;-0.20;99.90;;;;;;3575449;40;20275;-74
2020/12/10 08:23:58;;;;;;;40.10;16.00;;;-0.10;99.90;;;;;;3577348;40;20249;-77
2020/12/10 08:26:24;;;;;;;33.90;16.98;;;0.00;99.90;;;;;;3579589;40;20353;-77
2020/12/10 08:28:53;;;;;;;43.55;19.23;;;0.00;99.90;;;;;;3582814;40;20245;-77
2020/12/10 08:31:21;;;;;;;77.75;34.70;;;0.00;99.90;;;;;;3575657;40;20402;-74
2020/12/10 08:33:48;;;;;;;47.20;21.40;;;0.00;99.90;;;;;;3579280;40;20252;-74
2020/12/10 08:36:33;;;;;;;37.72;18.13;;;0.10;99.90;;;;;;3572000;40;20319;-74
2020/12/10 08:39:02;;;;;;;37.90;17.13;;;0.10;99.90;;;;;;3579671;40;20346;-76
2020/12/10 08:41:31;;;;;;;35.75;15.80;;;0.10;99.90;;;;;;3574427;40;20323;-76
2020/12/10 08:44:04;;;;;;;32.38;16.20;;;0.10;99.90;;;;;;3574820;40;20285;-76
2020/12/10 08:46:33;;;;;;;35.15;15.10;;;0.10;99.90;;;;;;3575348;40;20273;-76
2020/12/10 08:49:14;;;;;;;34.83;16.08;;;0.20;99.90;;;;;;3575722;40;20684;-74
2020/12/10 08:51:42;;;;;;;37.75;17.80;;;0.20;99.90;;;;;;3573529;40;20293;-74
2020/12/10 08:54:09;;;;;;;39.55;16.55;;;0.20;99.90;;;;;;3577900;32;20261;-74
2020/12/10 08:56:37;;;;;;;35.92;15.18;;;0.20;99.90;;;;;;3578905;40;20269;-74
2020/12/10 08:59:04;;;;;;;41.03;17.48;;;0.30;99.90;;;;;;3585325;32;20249;-74
2020/12/10 09:01:32;;;;;;;38.35;17.02;;;0.30;99.90;;;;;;3578477;40;20482;-74
2020/12/10 09:03:59;;;;;;;36.45;16.52;;;0.40;99.90;;;;;;3579132;32;20245;-74
2020/12/10 09:06:32;;;;;;;31.58;14.60;;;0.50;99.90;;;;;;3573992;40;20249;-74
2020/12/10 09:08:59;;;;;;;43.47;17.85;;;0.60;99.90;;;;;;3571318;40;20949;-74
2020/12/10 09:11:25;;;;;;;33.13;14.98;;;0.70;99.90;;;;;;3573719;40;20280;-74
2020/12/10 09:13:51;;;;;;;39.13;16.27;;;0.70;99.90;;;;;;3573981;40;20291;-74
2020/12/10 09:16:18;;;;;;;37.60;18.15;;;0.90;99.90;;;;;;3576888;40;20273;-74
2020/12/10 09:18:45;;;;;;;41.33;19.00;;;1.30;99.90;;;;;;3576573;40;20345;-74
2020/12/10 09:21:12;;;;;;;40.42;17.67;;;1.80;99.90;;;;;;3586737;32;20261;-74
2020/12/10 09:23:43;;;;;;;39.17;18.20;;;2.40;99.90;;;;;;3578581;40;20288;-75
2020/12/10 09:26:10;;;;;;;33.25;17.15;;;2.90;99.90;;;;;;3578728;40;20267;-74
2020/12/10 09:28:37;;;;;;;33.42;17.20;;;3.50;99.90;;;;;;3581674;32;20691;-75
2020/12/10 09:31:03;;;;;;;29.10;15.98;;;4.00;99.90;;;;;;3578524;40;20260;-74
2020/12/10 09:33:30;;;;;;;32.53;17.67;;;4.50;99.90;;;;;;3578961;40;20279;-74
2020/12/10 09:35:57;;;;;;;30.77;17.35;;;4.90;99.90;;;;;;3577360;40;20266;-75
2020/12/10 09:38:24;;;;;;;39.78;20.40;;;5.30;99.90;;;;;;3578228;40;20327;-75
2020/12/10 09:40:50;;;;;;;36.53;19.95;;;5.60;99.90;;;;;;3574820;40;20366;-75
2020/12/10 09:43:17;;;;;;;36.22;21.70;;;6.00;99.90;;;;;;3578099;40;20252;-75
2020/12/10 09:45:47;;;;;;;38.50;19.80;;;6.20;99.90;;;;;;3578464;40;20281;-75
2020/12/10 09:48:14;;;;;;;35.78;19.30;;;6.40;99.90;;;;;;3584922;32;20280;-75
2020/12/10 09:50:40;;;;;;;36.10;18.80;;;6.60;99.90;;;;;;3575637;40;20272;-75
2020/12/10 09:53:11;;;;;;;33.85;18.85;;;6.80;99.90;;;;;;3575779;40;20262;-75
2020/12/10 09:58:21;;;;;;;34.22;19.10;;;7.10;99.90;;;;;;3580451;32;20248;-75
2020/12/10 10:00:49;;;;;;;35.40;19.60;;;7.30;99.90;;;;;;3578734;40;20293;-75
2020/12/10 10:03:16;;;;;;;37.50;19.40;;;7.40;99.90;;;;;;3578597;40;20343;-75
2020/12/10 10:05:43;;;;;;;48.72;27.40;;;7.50;99.90;;;;;;3578168;40;20773;-75
2020/12/10 10:08:11;;;;;;;40.92;24.15;;;7.60;99.90;;;;;;3578168;40;20264;-75
2020/12/10 10:10:37;;;;;;;39.22;23.73;;;7.70;99.90;;;;;;3577333;40;20283;-75
2020/12/10 10:13:04;;;;;;;37.55;21.73;;;7.70;99.90;;;;;;3589872;32;20373;-75
2020/12/10 10:15:31;;;;;;;34.72;21.17;;;7.80;99.90;;;;;;3577218;40;20354;-75
2020/12/10 10:17:57;;;;;;;38.35;20.70;;;7.80;99.90;;;;;;3577414;40;20249;-75
2020/12/10 10:20:24;;;;;;;32.70;19.10;;;7.80;99.90;;;;;;3576474;40;20284;-75
2020/12/10 10:22:50;;;;;;;33.90;19.17;;;7.70;99.90;;;;;;3578827;40;20261;-75
2020/12/10 10:25:18;;;;;;;34.35;19.23;;;7.50;99.90;;;;;;3577365;40;20358;-75
2020/12/10 10:27:45;;;;;;;34.17;18.30;;;7.40;99.90;;;;;;3577189;40;20261;-75
2020/12/10 10:30:12;;;;;;;33.55;19.88;;;7.20;99.90;;;;;;3595223;32;20272;-75
2020/12/10 10:32:38;;;;;;;32.33;18.23;;;7.00;99.90;;;;;;3577756;40;20358;-75
2020/12/10 10:35:05;;;;;;;36.40;19.63;;;6.80;99.90;;;;;;3577490;40;20341;-75
2020/12/10 10:37:31;;;;;;;36.33;19.27;;;6.60;99.90;;;;;;3576883;40;20354;-75
2020/12/10 10:39:58;;;;;;;38.65;20.80;;;6.40;99.90;;;;;;3578330;40;20261;-75
2020/12/10 10:42:25;;;;;;;34.67;19.10;;;6.20;99.90;;;;;;3592339;32;20413;-75
2020/12/10 10:44:52;;;;;;;39.15;18.33;;;6.10;99.90;;;;;;3578567;40;20273;-74
2020/12/10 10:47:18;;;;;;;31.55;18.25;;;5.80;99.90;;;;;;3577047;40;20249;-75
2020/12/10 10:49:45;;;;;;;35.53;19.25;;;5.70;99.90;;;;;;3578330;40;20338;-75
2020/12/10 10:52:11;;;;;;;36.20;18.17;;;5.60;99.90;;;;;;3578105;40;20273;-75
2020/12/10 10:54:38;;;;;;;35.92;18.95;;;5.60;99.90;;;;;;3579884;40;20335;-75
2020/12/10 10:57:04;;;;;;;34.58;19.10;;;5.60;99.90;;;;;;3572011;40;20265;-75
2020/12/10 10:59:32;;;;;;;29.25;16.58;;;5.60;99.90;;;;;;3572174;40;20292;-75
2020/12/10 11:05:24;;;;;;;34.85;17.30;;;5.40;99.90;;;;;;3644064;39;20395;-73
2020/12/10 11:07:51;;;;;;;30.02;16.17;;;5.30;99.90;;;;;;3639483;39;20255;-73
2020/12/10 11:10:21;;;;;;;33.55;18.77;;;5.30;99.90;;;;;;3643193;39;20234;-73
2020/12/10 11:12:48;;;;;;;33.00;18.65;;;5.30;99.90;;;;;;3649879;39;20250;-73
2020/12/10 11:15:15;;;;;;;29.77;15.57;;;5.30;99.90;;;;;;3647690;39;20235;-73
2020/12/10 11:17:42;;;;;;;29.63;17.10;;;5.30;99.90;;;;;;3650483;39;20259;-73
2020/12/10 11:20:09;;;;;;;29.88;16.00;;;5.30;99.90;;;;;;3648153;39;20277;-73
2020/12/10 11:22:39;;;;;;;27.63;16.27;;;5.30;99.90;;;;;;3649701;39;20315;-73
2020/12/10 11:44:51;;;;;;;33.35;15.85;;;5.80;99.90;;;;;;3666706;31;20251;-74
2020/12/10 11:47:18;;;;;;;26.60;13.13;;;5.70;99.90;;;;;;3641310;39;20247;-74
2020/12/10 11:49:44;;;;;;;22.98;14.20;;;5.60;99.90;;;;;;3639960;39;20339;-74
2020/12/10 11:52:11;;;;;;;25.17;14.18;;;5.60;99.90;;;;;;3639762;39;20351;-74
2020/12/10 11:54:37;;;;;;;28.05;14.13;;;5.70;99.90;;;;;;3642952;39;20258;-75
2020/12/10 11:57:05;;;;;;;24.75;13.82;;;5.70;99.90;;;;;;3644835;39;20270;-75
2020/12/10 11:59:31;;;;;;;25.50;13.10;;;5.80;99.90;;;;;;3640179;39;20347;-74
2020/12/10 12:01:59;;;;;;;27.08;15.40;;;5.90;99.90;;;;;;3638636;39;20292;-73
2020/12/10 12:04:25;;;;;;;25.75;13.13;;;5.90;99.90;;;;;;3641783;39;20274;-73
2020/12/10 12:06:51;;;;;;;25.52;13.00;;;6.00;99.90;;;;;;3665244;31;20370;-73
2020/12/10 12:09:18;;;;;;;26.13;13.48;;;6.00;99.90;;;;;;3644425;39;20306;-73
2020/12/10 12:11:44;;;;;;;22.50;12.63;;;6.00;99.90;;;;;;3645801;39;20263;-73
2020/12/10 12:14:12;;;;;;;25.35;13.35;;;6.10;99.90;;;;;;3643484;39;20263;-73
2020/12/10 12:16:38;;;;;;;30.58;13.77;;;6.10;99.90;;;;;;3639359;39;20254;-73
2020/12/10 12:19:05;;;;;;;27.10;13.23;;;6.00;99.90;;;;;;3639016;39;20256;-73
2020/12/10 12:21:32;;;;;;;26.25;12.15;;;6.00;99.90;;;;;;3638477;31;20282;-73
2020/12/10 12:23:58;;;;;;;21.08;11.60;;;6.00;99.90;;;;;;3631755;39;20395;-73
2020/12/10 12:26:32;;;;;;;21.75;11.95;;;6.10;99.90;;;;;;3632077;39;20336;-72
2020/12/10 12:28:59;;;;;;;21.00;12.13;;;6.10;99.90;;;;;;3637041;39;20239;-73
2020/12/10 12:31:29;;;;;;;26.77;13.52;;;6.10;99.90;;;;;;3637531;39;20279;-73
2020/12/10 12:33:56;;;;;;;22.77;12.15;;;6.20;99.90;;;;;;3639363;39;20286;-73
2020/12/10 12:36:24;;;;;;;22.05;11.70;;;6.20;99.90;;;;;;3637342;39;20375;-73
2020/12/10 12:38:50;;;;;;;23.10;13.48;;;6.20;99.90;;;;;;3637190;31;20239;-73
2020/12/10 12:41:17;;;;;;;20.92;12.35;;;6.00;99.90;;;;;;3638328;31;20335;-73
2020/12/10 12:43:44;;;;;;;30.85;15.85;;;5.80;99.90;;;;;;3635064;39;20267;-74
2020/12/10 12:46:10;;;;;;;25.33;12.23;;;5.80;99.90;;;;;;3635741;39;20239;-73
2020/12/10 12:48:37;;;;;;;22.92;14.32;;;5.70;99.90;;;;;;3633971;39;20275;-73
2020/12/10 12:51:04;;;;;;;26.05;13.25;;;5.70;99.90;;;;;;3634914;39;20351;-73
2020/12/10 12:53:32;;;;;;;24.73;12.07;;;5.70;99.90;;;;;;3638297;39;20255;-73
2020/12/10 12:55:59;;;;;;;20.63;13.15;;;5.60;99.90;;;;;;3638355;39;20263;-73
2020/12/10 12:58:25;;;;;;;20.25;11.65;;;5.60;99.90;;;;;;3638542;39;20346;-73
2020/12/10 13:00:52;;;;;;;21.00;11.82;;;5.60;99.90;;;;;;3639482;39;20342;-73
2020/12/10 13:03:18;;;;;;;22.75;12.13;;;5.70;99.90;;;;;;3638608;39;20385;-73
2020/12/10 13:05:45;;;;;;;19.52;11.80;;;5.60;99.90;;;;;;3638470;39;20247;-73